Wetterdaten: Woche 24.01.22 - 30.01.22 (KW4)
Datum Zeit Temp. A. Feuchte A. Luftdruck Regen Wind Richtung Taupunkt Windchill
24.01.2022 00:00 3,9 C 95 % 1039 hPa 0,0 l/m 0,0 km/h (0 Bft) W-NW 3,2 C 3,9 C
24.01.2022 01:00 3,9 C 95 % 1039 hPa 0,0 l/m 0,0 km/h (0 Bft) W-NW 3,2 C 3,9 C
24.01.2022 02:00 3,8 C 95 % 1038 hPa 0,0 l/m 0,0 km/h (0 Bft) W-NW 3,1 C 3,8 C
24.01.2022 03:00 3,8 C 95 % 1038 hPa 0,0 l/m 0,0 km/h (0 Bft) W-NW 3,1 C 3,8 C
24.01.2022 04:00 3,8 C 95 % 1038 hPa 0,0 l/m 0,0 km/h (0 Bft) W-NW 3,1 C 3,8 C
24.01.2022 05:00 3,8 C 95 % 1038 hPa 0,0 l/m 0,0 km/h (0 Bft) W-NW 3,1 C 3,8 C
24.01.2022 06:00 3,8 C 95 % 1038 hPa 0,0 l/m 0,0 km/h (0 Bft) W-NW 3,1 C 3,8 C
24.01.2022 07:00 3,8 C 95 % 1039 hPa 0,0 l/m 0,0 km/h (0 Bft) W-NW 3,1 C 3,8 C
24.01.2022 08:00 3,8 C 95 % 1039 hPa 0,0 l/m 0,0 km/h (0 Bft) W-NW 3,1 C 3,8 C
24.01.2022 09:00 4,1 C 95 % 1039 hPa 0,0 l/m 0,0 km/h (0 Bft) W-NW 3,4 C 4,1 C
24.01.2022 10:00 4,7 C 95 % 1039 hPa 0,0 l/m 0,0 km/h (0 Bft) W-NW 4,0 C 4,7 C
24.01.2022 11:00 5,5 C 95 % 1039 hPa 0,0 l/m 0,0 km/h (0 Bft) W-NW 4,7 C 5,5 C
24.01.2022 12:00 5,8 C 95 % 1038 hPa 0,0 l/m 0,0 km/h (0 Bft) W-NW 5,0 C 5,8 C
24.01.2022 13:00 5,4 C 95 % 1038 hPa 0,0 l/m 0,0 km/h (0 Bft) W-NW 4,7 C 5,4 C
24.01.2022 14:00 5,3 C 95 % 1038 hPa 0,0 l/m 0,0 km/h (0 Bft) W-NW 4,6 C 5,3 C
24.01.2022 15:00 5,2 C 95 % 1038 hPa 0,0 l/m 0,0 km/h (0 Bft) W-NW 4,4 C 5,2 C
24.01.2022 16:00 4,8 C 95 % 1038 hPa 0,0 l/m 0,0 km/h (0 Bft) W-NW 4,1 C 4,8 C
24.01.2022 17:00 4,4 C 95 % 1038 hPa 0,0 l/m 0,0 km/h (0 Bft) S-SW 3,7 C 4,4 C
24.01.2022 18:00 4,0 C 95 % 1038 hPa 0,0 l/m 0,0 km/h (0 Bft) S-SW 3,3 C 4,0 C
24.01.2022 19:00 3,8 C 95 % 1038 hPa 0,0 l/m 0,0 km/h (0 Bft) S-SW 3,1 C 3,8 C
24.01.2022 20:00 3,5 C 95 % 1038 hPa 0,0 l/m 0,0 km/h (0 Bft) S-SW 2,8 C 3,5 C
24.01.2022 21:00 3,3 C 95 % 1038 hPa 0,0 l/m 0,0 km/h (0 Bft) S-SW 2,6 C 3,3 C
24.01.2022 22:00 3,3 C 95 % 1038 hPa 0,0 l/m 0,0 km/h (0 Bft) S-SW 2,5 C 3,3 C
24.01.2022 23:00 3,0 C 95 % 1038 hPa 0,0 l/m 0,0 km/h (0 Bft) S-SW 2,3 C 3,0 C
25.01.2022 00:00 2,9 C 95 % 1038 hPa 0,0 l/m 0,0 km/h (0 Bft) S-SW 2,2 C 2,9 C
25.01.2022 01:00 2,8 C 95 % 1038 hPa 0,0 l/m 0,0 km/h (0 Bft) S-SW 2,1 C 2,8 C
25.01.2022 02:00 2,7 C 95 % 1037 hPa 0,0 l/m 0,0 km/h (0 Bft) S-SW 1,9 C 2,7 C
25.01.2022 03:00 2,5 C 95 % 1037 hPa 0,0 l/m 0,0 km/h (0 Bft) S-SW 1,8 C 2,5 C
25.01.2022 04:00 2,4 C 95 % 1036 hPa 0,0 l/m 0,0 km/h (0 Bft) SW 1,6 C 2,4 C
25.01.2022 05:00 2,3 C 95 % 1036 hPa 0,0 l/m 0,0 km/h (0 Bft) SW 1,6 C 2,3 C
25.01.2022 06:00 2,2 C 95 % 1036 hPa 0,0 l/m 0,0 km/h (0 Bft) SW 1,5 C 2,2 C
25.01.2022 07:00 2,1 C 95 % 1037 hPa 0,0 l/m 0,0 km/h (0 Bft) W 1,4 C 2,1 C
25.01.2022 08:00 2,0 C 94 % 1037 hPa 0,0 l/m 0,0 km/h (0 Bft) NW 1,2 C 2,0 C
25.01.2022 09:00 1,9 C 94 % 1037 hPa 0,0 l/m 0,7 km/h (0 Bft) NW 1,0 C 1,7 C
25.01.2022 10:00 1,9 C 94 % 1037 hPa 0,0 l/m 0,0 km/h (0 Bft) N-NW 1,0 C 1,9 C
25.01.2022 11:00 2,0 C 94 % 1037 hPa 0,0 l/m 0,0 km/h (0 Bft) N-NW 1,2 C 2,0 C
25.01.2022 12:00 2,2 C 94 % 1037 hPa 0,0 l/m 0,0 km/h (0 Bft) N-NW 1,4 C 2,2 C
25.01.2022 13:00 2,1 C 94 % 1036 hPa 0,0 l/m 0,0 km/h (0 Bft) N-NW 1,2 C 2,1 C
25.01.2022 14:00 2,0 C 94 % 1036 hPa 0,0 l/m 0,0 km/h (0 Bft) NW 1,1 C 2,0 C
25.01.2022 15:00 2,1 C 94 % 1036 hPa 0,0 l/m 0,0 km/h (0 Bft) W-NW 1,2 C 2,1 C
25.01.2022 16:00 1,6 C 93 % 1036 hPa 0,0 l/m 0,0 km/h (0 Bft) N 0,6 C 1,6 C
25.01.2022 17:00 1,4 C 93 % 1036 hPa 0,0 l/m 0,0 km/h (0 Bft) W-NW 0,4 C 1,4 C
25.01.2022 18:00 1,3 C 93 % 1036 hPa 0,0 l/m 0,0 km/h (0 Bft) W-NW 0,3 C 1,3 C
25.01.2022 19:00 1,1 C 93 % 1036 hPa 0,0 l/m 0,0 km/h (0 Bft) W-NW 0,1 C 1,1 C
25.01.2022 20:00 1,1 C 93 % 1036 hPa 0,0 l/m 0,0 km/h (0 Bft) W-NW 0,1 C 1,1 C
25.01.2022 21:00 1,1 C 93 % 1036 hPa 0,0 l/m 0,0 km/h (0 Bft) W-NW 0,0 C 1,1 C
25.01.2022 22:00 0,9 C 93 % 1036 hPa 0,0 l/m 0,0 km/h (0 Bft) W-NW -0,1 C 0,9 C
25.01.2022 23:00 0,8 C 93 % 1036 hPa 0,0 l/m 0,0 km/h (0 Bft) W-NW -0,2 C 0,8 C
26.01.2022 00:00 0,6 C 93 % 1035 hPa 0,0 l/m 0,0 km/h (0 Bft) W-NW -0,3 C 0,6 C
26.01.2022 01:00 0,5 C 93 % 1035 hPa 0,0 l/m 0,0 km/h (0 Bft) W-NW -0,5 C 0,5 C
26.01.2022 02:00 0,4 C 93 % 1035 hPa 0,0 l/m 0,0 km/h (0 Bft) W-NW -0,6 C 0,4 C
26.01.2022 03:00 0,2 C 93 % 1035 hPa 0,0 l/m 0,0 km/h (0 Bft) W -0,7 C 0,2 C
26.01.2022 04:00 0,1 C 93 % 1035 hPa 0,0 l/m 0,0 km/h (0 Bft) W -0,9 C 0,1 C
26.01.2022 05:00 -0,1 C 93 % 1034 hPa 0,0 l/m 0,0 km/h (0 Bft) W -1,1 C -0,1 C
26.01.2022 06:00 -0,1 C 93 % 1034 hPa 0,0 l/m 0,0 km/h (0 Bft) W -1,1 C -0,1 C
26.01.2022 07:00 -0,1 C 93 % 1034 hPa 0,0 l/m 0,0 km/h (0 Bft) NW -1,1 C -0,1 C
26.01.2022 08:00 -0,1 C 93 % 1034 hPa 0,0 l/m 0,0 km/h (0 Bft) NW -1,1 C -0,1 C
26.01.2022 09:00 0,1 C 94 % 1034 hPa 0,0 l/m 0,0 km/h (0 Bft) W -0,8 C 0,1 C
26.01.2022 10:00 0,1 C 93 % 1034 hPa 0,0 l/m 0,0 km/h (0 Bft) W-NW -0,9 C 0,1 C
26.01.2022 11:00 0,1 C 93 % 1034 hPa 0,0 l/m 0,1 km/h (0 Bft) W-NW -0,9 C 0,1 C
26.01.2022 12:00 0,2 C 93 % 1034 hPa 0,0 l/m 0,7 km/h (0 Bft) W-NW -0,8 C 0,0 C
26.01.2022 13:00 0,0 C 92 % 1034 hPa 0,0 l/m 0,9 km/h (0 Bft) W-NW -1,1 C 0,0 C
26.01.2022 14:00 -0,3 C 92 % 1034 hPa 0,0 l/m 1,2 km/h (1 Bft) W-NW -1,5 C -0,3 C
26.01.2022 15:00 -0,4 C 92 % 1033 hPa 0,0 l/m 1,4 km/h (1 Bft) W -1,5 C -0,4 C
26.01.2022 16:00 -0,4 C 92 % 1033 hPa 0,0 l/m 0,4 km/h (0 Bft) W -1,6 C -0,4 C
26.01.2022 17:00 -0,3 C 91 % 1033 hPa 0,0 l/m 0,7 km/h (0 Bft) W -1,6 C -0,5 C
26.01.2022 18:00 -0,1 C 91 % 1033 hPa 0,0 l/m 0,0 km/h (0 Bft) W -1,4 C -0,1 C
26.01.2022 19:00 0,2 C 91 % 1033 hPa 0,0 l/m 0,0 km/h (0 Bft) W-NW -1,1 C 0,2 C
26.01.2022 20:00 0,3 C 91 % 1032 hPa 0,0 l/m 0,0 km/h (0 Bft) W-NW -1,0 C 0,3 C
26.01.2022 21:00 0,5 C 91 % 1032 hPa 0,0 l/m 0,3 km/h (0 Bft) W-NW -0,8 C 0,5 C
26.01.2022 22:00 0,6 C 91 % 1032 hPa 0,0 l/m 0,6 km/h (0 Bft) W-NW -0,7 C 0,5 C
26.01.2022 23:00 0,7 C 91 % 1032 hPa 0,0 l/m 1,2 km/h (1 Bft) W-NW -0,6 C 0,5 C
27.01.2022 00:00 0,7 C 91 % 1031 hPa 0,0 l/m 0,6 km/h (0 Bft) W-NW -0,6 C 0,6 C
27.01.2022 01:00 0,6 C 91 % 1031 hPa 0,0 l/m 0,0 km/h (0 Bft) W -0,7 C 0,6 C
27.01.2022 02:00 0,6 C 91 % 1030 hPa 0,0 l/m 0,5 km/h (0 Bft) W -0,7 C 0,6 C
27.01.2022 03:00 0,5 C 91 % 1029 hPa 0,0 l/m 0,0 km/h (0 Bft) W-SW -0,8 C 0,5 C
27.01.2022 04:00 0,5 C 91 % 1028 hPa 0,0 l/m 0,0 km/h (0 Bft) W -0,8 C 0,5 C
27.01.2022 05:00 0,7 C 91 % 1028 hPa 0,0 l/m 0,0 km/h (0 Bft) W -0,6 C 0,7 C
27.01.2022 06:00 0,6 C 91 % 1027 hPa 0,0 l/m 0,5 km/h (0 Bft) W-NW -0,7 C 0,6 C
27.01.2022 07:00 0,1 C 90 % 1027 hPa 0,0 l/m 0,1 km/h (0 Bft) W -1,3 C 0,1 C
27.01.2022 08:00 -0,2 C 90 % 1027 hPa 0,0 l/m 0,1 km/h (0 Bft) W -1,6 C -0,2 C
27.01.2022 09:00 0,3 C 89 % 1026 hPa 0,0 l/m 2,0 km/h (1 Bft) W -1,2 C -0,2 C
27.01.2022 10:00 1,4 C 87 % 1026 hPa 0,0 l/m 0,7 km/h (0 Bft) W-NW -0,5 C 1,4 C
27.01.2022 11:00 2,1 C 85 % 1025 hPa 0,5 l/m 0,0 km/h (0 Bft) W -0,1 C 2,1 C
27.01.2022 12:00 2,3 C 85 % 1025 hPa 0,0 l/m 0,6 km/h (0 Bft) W 0,1 C 2,3 C
27.01.2022 13:00 2,2 C 86 % 1024 hPa 0,0 l/m 0,0 km/h (0 Bft) W 0,1 C 2,2 C
27.01.2022 14:00 2,5 C 86 % 1024 hPa 0,0 l/m 0,4 km/h (0 Bft) W 0,5 C 2,5 C
27.01.2022 15:00 2,5 C 86 % 1024 hPa 0,0 l/m 0,0 km/h (0 Bft) W 0,5 C 2,5 C
27.01.2022 16:00 2,6 C 88 % 1023 hPa 0,0 l/m 0,0 km/h (0 Bft) W 0,8 C 2,6 C
27.01.2022 17:00 2,9 C 88 % 1023 hPa 0,0 l/m 0,7 km/h (0 Bft) W-SW 1,1 C 2,9 C
27.01.2022 18:00 3,2 C 87 % 1023 hPa 0,0 l/m 0,8 km/h (0 Bft) S-SW 1,3 C 3,2 C
27.01.2022 19:00 3,2 C 88 % 1023 hPa 0,0 l/m 0,7 km/h (0 Bft) W-NW 1,5 C 3,2 C
27.01.2022 20:00 4,0 C 90 % 1022 hPa 0,0 l/m 3,9 km/h (1 Bft) W-NW 2,4 C 3,1 C
27.01.2022 21:00 3,4 C 90 % 1023 hPa 0,5 l/m 3,7 km/h (1 Bft) W-NW 2,0 C 2,9 C
27.01.2022 22:00 3,0 C 91 % 1023 hPa 0,0 l/m 2,8 km/h (1 Bft) W-NW 1,6 C 2,6 C
27.01.2022 23:00 3,1 C 90 % 1024 hPa 0,0 l/m 8,0 km/h (2 Bft) W-NW 1,6 C 1,3 C
28.01.2022 00:00 2,6 C 89 % 1024 hPa 0,0 l/m 6,5 km/h (2 Bft) W-NW 1,1 C 1,2 C
28.01.2022 01:00 2,2 C 88 % 1025 hPa 0,0 l/m 6,8 km/h (2 Bft) W-NW 0,5 C 0,6 C
28.01.2022 02:00 2,7 C 87 % 1026 hPa 0,0 l/m 6,3 km/h (2 Bft) W-NW 0,7 C 1,4 C
28.01.2022 03:00 2,5 C 86 % 1026 hPa 0,0 l/m 4,7 km/h (1 Bft) W-NW 0,5 C 1,9 C
28.01.2022 04:00 2,0 C 87 % 1027 hPa 0,0 l/m 4,8 km/h (1 Bft) W-NW 0,1 C 1,5 C
28.01.2022 05:00 1,8 C 87 % 1028 hPa 0,0 l/m 3,1 km/h (1 Bft) W-NW -0,1 C 0,9 C
28.01.2022 06:00 1,1 C 90 % 1029 hPa 0,0 l/m 1,3 km/h (1 Bft) W-NW -0,3 C 1,1 C
28.01.2022 07:00 1,3 C 91 % 1029 hPa 0,0 l/m 1,3 km/h (1 Bft) W-NW 0,1 C 1,2 C
28.01.2022 08:00 1,6 C 91 % 1030 hPa 0,0 l/m 2,3 km/h (1 Bft) W-NW 0,4 C 1,5 C
28.01.2022 09:00 2,1 C 90 % 1031 hPa 0,5 l/m 2,1 km/h (1 Bft) W-NW 0,6 C 2,0 C
28.01.2022 10:00 2,0 C 90 % 1032 hPa 0,0 l/m 1,9 km/h (1 Bft) W-NW 0,6 C 2,0 C
28.01.2022 11:00 2,8 C 89 % 1032 hPa 0,0 l/m 2,5 km/h (1 Bft) W-NW 1,1 C 2,7 C
28.01.2022 12:00 3,3 C 86 % 1033 hPa 0,0 l/m 0,2 km/h (0 Bft) W-NW 1,2 C 3,3 C
28.01.2022 13:00 3,9 C 82 % 1033 hPa 0,0 l/m 0,8 km/h (0 Bft) W-NW 1,2 C 3,9 C
28.01.2022 14:00 5,2 C 78 % 1033 hPa 0,0 l/m 1,9 km/h (1 Bft) W-NW 1,6 C 5,2 C
28.01.2022 15:00 4,8 C 75 % 1034 hPa 0,0 l/m 4,3 km/h (1 Bft) W-NW 0,8 C 4,1 C
28.01.2022 16:00 3,5 C 78 % 1035 hPa 0,0 l/m 0,1 km/h (0 Bft) W-NW 0,0 C 3,5 C
28.01.2022 17:00 2,5 C 81 % 1035 hPa 0,0 l/m 0,0 km/h (0 Bft) W-NW -0,5 C 2,5 C
28.01.2022 18:00 1,9 C 83 % 1036 hPa 0,0 l/m 0,0 km/h (0 Bft) W-NW -0,7 C 1,9 C
28.01.2022 19:00 1,7 C 84 % 1036 hPa 0,0 l/m 0,0 km/h (0 Bft) W-NW -0,7 C 1,7 C
28.01.2022 20:00 1,6 C 85 % 1036 hPa 0,0 l/m 0,0 km/h (0 Bft) W -0,7 C 1,6 C
28.01.2022 21:00 2,1 C 85 % 1036 hPa 0,0 l/m 0,0 km/h (0 Bft) W-NW -0,2 C 2,1 C
28.01.2022 22:00 1,8 C 84 % 1035 hPa 0,0 l/m 0,0 km/h (0 Bft) W -0,6 C 1,8 C
28.01.2022 23:00 1,0 C 85 % 1035 hPa 0,0 l/m 0,0 km/h (0 Bft) W-SW -1,2 C 1,0 C
29.01.2022 00:00 0,9 C 85 % 1034 hPa 0,0 l/m 0,0 km/h (0 Bft) S-SW -1,3 C 0,9 C
29.01.2022 01:00 1,1 C 86 % 1033 hPa 0,0 l/m 0,1 km/h (0 Bft) SW -1,0 C 1,1 C
29.01.2022 02:00 1,5 C 85 % 1033 hPa 0,0 l/m 0,3 km/h (0 Bft) S-SW -0,7 C 1,5 C
29.01.2022 03:00 1,6 C 85 % 1032 hPa 0,0 l/m 0,1 km/h (0 Bft) SW -0,6 C 1,6 C
29.01.2022 04:00 1,9 C 86 % 1031 hPa 0,0 l/m 0,1 km/h (0 Bft) S-SW -0,2 C 1,9 C
29.01.2022 05:00 2,3 C 86 % 1030 hPa 0,0 l/m 0,0 km/h (0 Bft) W 0,2 C 2,3 C
29.01.2022 06:00 2,7 C 86 % 1029 hPa 0,0 l/m 0,2 km/h (0 Bft) S-SW 0,6 C 2,7 C
29.01.2022 07:00 2,8 C 88 % 1028 hPa 0,0 l/m 0,0 km/h (0 Bft) S-SW 0,9 C 2,8 C
29.01.2022 08:00 2,6 C 89 % 1027 hPa 0,5 l/m 0,5 km/h (0 Bft) W-NW 1,0 C 2,6 C
29.01.2022 09:00 3,1 C 90 % 1026 hPa 0,0 l/m 0,0 km/h (0 Bft) W-NW 1,6 C 3,1 C
29.01.2022 10:00 4,0 C 90 % 1026 hPa 0,0 l/m 1,5 km/h (1 Bft) W 2,5 C 3,9 C
29.01.2022 11:00 5,2 C 88 % 1026 hPa 0,0 l/m 6,8 km/h (2 Bft) W-NW 3,4 C 3,8 C
29.01.2022 12:00 6,0 C 85 % 1025 hPa 0,0 l/m 8,6 km/h (2 Bft) W-NW 3,6 C 4,0 C
29.01.2022 13:00 6,2 C 84 % 1024 hPa 0,0 l/m 5,9 km/h (2 Bft) W-NW 3,7 C 5,0 C
29.01.2022 14:00 6,5 C 83 % 1023 hPa 0,0 l/m 1,9 km/h (1 Bft) W-NW 3,9 C 6,5 C
29.01.2022 15:00 6,4 C 83 % 1022 hPa 0,0 l/m 4,9 km/h (1 Bft) W-NW 3,8 C 5,7 C
29.01.2022 16:00 6,4 C 84 % 1021 hPa 0,0 l/m 2,3 km/h (1 Bft) W 3,9 C 6,4 C
29.01.2022 17:00 6,2 C 85 % 1021 hPa 0,0 l/m 1,4 km/h (1 Bft) W-NW 3,8 C 6,2 C
29.01.2022 18:00 6,9 C 85 % 1020 hPa 0,0 l/m 2,5 km/h (1 Bft) W-NW 4,5 C 6,7 C
29.01.2022 19:00 6,5 C 86 % 1020 hPa 0,0 l/m 2,7 km/h (1 Bft) W-NW 4,4 C 6,3 C
29.01.2022 20:00 6,6 C 89 % 1020 hPa 0,5 l/m 3,3 km/h (1 Bft) W-NW 4,9 C 6,4 C
29.01.2022 21:00 7,1 C 88 % 1020 hPa 0,0 l/m 4,8 km/h (1 Bft) W-NW 5,3 C 6,2 C
29.01.2022 22:00 6,7 C 88 % 1020 hPa 0,5 l/m 5,8 km/h (2 Bft) W-NW 4,8 C 5,6 C
29.01.2022 23:00 6,5 C 83 % 1020 hPa 0,0 l/m 10,2 km/h (2 Bft) W-NW 3,7 C 3,7 C
30.01.2022 00:00 6,5 C 76 % 1021 hPa 0,0 l/m 12,7 km/h (3 Bft) W-NW 2,6 C 2,1 C
30.01.2022 01:00 6,2 C 74 % 1021 hPa 0,0 l/m 12,6 km/h (3 Bft) W-NW 2,0 C 1,9 C
30.01.2022 02:00 4,5 C 81 % 1021 hPa 0,0 l/m 5,6 km/h (1 Bft) W-NW 1,5 C 3,0 C
30.01.2022 03:00 4,7 C 79 % 1022 hPa 0,0 l/m 11,9 km/h (2 Bft) W-NW 1,4 C 0,6 C
30.01.2022 04:00 4,5 C 77 % 1022 hPa 0,0 l/m 12,7 km/h (3 Bft) W-NW 0,8 C -0,0 C
30.01.2022 05:00 4,5 C 76 % 1022 hPa 0,0 l/m 10,2 km/h (2 Bft) W-NW 0,6 C 1,5 C
30.01.2022 06:00 4,4 C 76 % 1022 hPa 0,0 l/m 11,2 km/h (2 Bft) W-NW 0,5 C 0,7 C
30.01.2022 07:00 4,2 C 77 % 1023 hPa 0,0 l/m 10,9 km/h (2 Bft) W-NW 0,4 C 0,5 C
30.01.2022 08:00 4,1 C 76 % 1023 hPa 0,0 l/m 10,9 km/h (2 Bft) W-NW 0,3 C 0,6 C
30.01.2022 09:00 3,6 C 78 % 1024 hPa 0,0 l/m 9,2 km/h (2 Bft) W-NW 0,2 C 0,4 C
30.01.2022 10:00 4,0 C 76 % 1025 hPa 0,0 l/m 9,5 km/h (2 Bft) W-NW 0,2 C 1,3 C
30.01.2022 11:00 4,7 C 70 % 1026 hPa 0,0 l/m 6,7 km/h (2 Bft) W-NW -0,3 C 2,8 C
30.01.2022 12:00 4,9 C 69 % 1026 hPa 0,0 l/m 7,1 km/h (2 Bft) W-NW -0,4 C 3,2 C
30.01.2022 13:00 4,8 C 69 % 1026 hPa 0,0 l/m 9,0 km/h (2 Bft) W-NW -0,4 C 2,3 C
30.01.2022 14:00 4,6 C 70 % 1026 hPa 0,0 l/m 7,2 km/h (2 Bft) W-NW -0,5 C 2,8 C
30.01.2022 15:00 4,3 C 70 % 1027 hPa 0,0 l/m 7,1 km/h (2 Bft) W-NW -0,7 C 2,8 C
30.01.2022 16:00 4,0 C 71 % 1027 hPa 0,0 l/m 4,4 km/h (1 Bft) W-NW -0,8 C 3,5 C
30.01.2022 17:00 3,6 C 71 % 1027 hPa 0,0 l/m 4,5 km/h (1 Bft) W-NW -1,2 C 2,8 C
30.01.2022 18:00 3,4 C 71 % 1027 hPa 0,0 l/m 2,1 km/h (1 Bft) W-NW -1,4 C 3,4 C
30.01.2022 19:00 3,3 C 71 % 1027 hPa 0,0 l/m 2,9 km/h (1 Bft) W-NW -1,4 C 2,7 C
30.01.2022 20:00 3,0 C 71 % 1027 hPa 0,0 l/m 1,1 km/h (1 Bft) W-NW -1,8 C 2,9 C
30.01.2022 21:00 2,7 C 72 % 1026 hPa 0,0 l/m 0,0 km/h (0 Bft) W-NW -1,8 C 2,7 C
30.01.2022 22:00 2,7 C 72 % 1025 hPa 0,0 l/m 0,6 km/h (0 Bft) W-NW -1,8 C 2,7 C
30.01.2022 23:00 2,6 C 71 % 1024 hPa 0,0 l/m 1,1 km/h (1 Bft) W-NW -2,1 C 2,5 C
Min-Datum _ 26.01.22 30.01.22 29.01.22 - 30.01.22 - 30.01.22 30.01.22
_ Min-Zeit 16:20 13:20 21:00 - 23:00 - 23:45 10:05
Minimum _ -0,5 C 68 % 1019 hPa - 0,0 km/h (0 Bft) - -2,2 C -5,3 C
Max-Datum _ 29.01.22 24.01.22 24.01.22 29.01.22 30.01.22 - 29.01.22 29.01.22
_ Max-Zeit 21:10 10:00 12:00 22:00 06:10 - 21:10 21:10
Maximum _ 7,2 C 96 % 1039 hPa 0,5 l/m 21,6 km/h
W-NW (4 Bft)
- 5,3 C 7,2 C
Durchschnitt _ 2,7 C 88 % 1031 hPa #3,1 l/m 1,9 km/h (1 Bft) W-NW 0,9 C 2,3 C